Time;durP1;ratioP1;P1;durP2;ratioP2;P2;SDS_P1;SDS_P2;PMS_P1;PMS_P2;Temp;Humidity;BMP_temperature;BMP_pressure;BME280_temperature;BME280_humidity;BME280_pressure;Samples;Min_cycle;Max_cycle;Signal;HPM_P1;HPM_P2
2021/03/01 00:00:31;;;;;;;12.93;8.60;;;;;;;;;;13037543;22;20628;-78
2021/03/01 00:05:34;;;;;;;14.93;8.17;;;;;;;;;;13037385;22;20185;-78
2021/03/01 00:10:36;;;;;;;29.63;9.13;;;;;;;;;;13037799;22;20189;-79
2021/03/01 00:15:39;;;;;;;14.10;9.17;;;;;;;;;;13035671;22;20213;-79
2021/03/01 00:20:42;;;;;;;13.73;8.60;;;;;;;;;;13033714;22;20628;-78
2021/03/01 00:25:44;;;;;;;14.17;9.30;;;;;;;;;;13016532;22;20170;-79
2021/03/01 00:30:46;;;;;;;15.30;9.60;;;;;;;;;;13033975;22;20194;-79
2021/03/01 00:35:49;;;;;;;17.50;9.73;;;;;;;;;;13038119;22;20666;-78
2021/03/01 00:40:51;;;;;;;15.23;9.87;;;;;;;;;;13014871;22;20275;-78
2021/03/01 00:45:53;;;;;;;16.40;9.83;;;;;;;;;;13014909;22;20686;-77
2021/03/01 00:50:55;;;;;;;17.10;10.03;;;;;;;;;;13014305;22;20200;-76
2021/03/01 00:56:01;;;;;;;17.13;10.67;;;;;;;;;;13037010;22;20194;-76
2021/03/01 01:01:03;;;;;;;17.37;11.03;;;;;;;;;;13012676;22;20631;-76
2021/03/01 01:06:06;;;;;;;18.37;10.90;;;;;;;;;;13022217;22;20201;-77
2021/03/01 01:11:08;;;;;;;19.30;11.07;;;;;;;;;;13013331;22;20731;-77
2021/03/01 01:16:10;;;;;;;18.77;11.20;;;;;;;;;;13035097;22;20181;-78
2021/03/01 01:21:13;;;;;;;21.83;11.23;;;;;;;;;;13033430;22;20174;-77
2021/03/01 01:26:15;;;;;;;16.47;10.80;;;;;;;;;;13015055;22;20439;-77
2021/03/01 01:31:17;;;;;;;16.43;10.33;;;;;;;;;;13036371;22;20535;-77
2021/03/01 01:36:19;;;;;;;16.23;10.43;;;;;;;;;;13040519;22;20257;-79
2021/03/01 01:41:25;;;;;;;17.00;9.60;;;;;;;;;;13033660;22;20166;-79
2021/03/01 01:46:28;;;;;;;15.27;8.87;;;;;;;;;;13033815;22;20562;-76
2021/03/01 01:51:31;;;;;;;14.30;7.87;;;;;;;;;;13031856;22;20236;-76
2021/03/01 01:56:33;;;;;;;16.07;8.83;;;;;;;;;;13013594;22;20200;-77
2021/03/01 02:01:35;;;;;;;16.77;9.57;;;;;;;;;;13010517;22;20658;-76
2021/03/01 02:06:44;;;;;;;15.13;9.77;;;;;;;;;;13012579;22;20186;-77
2021/03/01 02:12:09;;;;;;;17.70;10.40;;;;;;;;;;13012542;22;20801;-76
2021/03/01 02:17:11;;;;;;;18.77;10.67;;;;;;;;;;13034644;22;20177;-76
2021/03/01 02:22:14;;;;;;;19.87;11.50;;;;;;;;;;13013827;22;20354;-76
2021/03/01 02:27:19;;;;;;;20.47;11.20;;;;;;;;;;13013221;22;20185;-77
2021/03/01 02:32:21;;;;;;;17.90;11.43;;;;;;;;;;13035829;22;20534;-77
2021/03/01 02:37:25;;;;;;;21.40;11.77;;;;;;;;;;13033329;22;20165;-76
2021/03/01 02:42:29;;;;;;;22.20;12.13;;;;;;;;;;13014508;22;20215;-77
2021/03/01 02:47:31;;;;;;;17.10;10.73;;;;;;;;;;13013102;22;20174;-77
2021/03/01 02:52:35;;;;;;;17.20;10.37;;;;;;;;;;13038523;22;20506;-78
2021/03/01 02:57:38;;;;;;;18.43;10.13;;;;;;;;;;13014200;22;20719;-77
2021/03/01 03:02:41;;;;;;;18.60;10.60;;;;;;;;;;13014309;22;20169;-79
2021/03/01 03:07:45;;;;;;;19.67;10.47;;;;;;;;;;13034780;22;20220;-79
2021/03/01 03:12:48;;;;;;;19.20;10.47;;;;;;;;;;13037498;22;20213;-79
2021/03/01 03:17:50;;;;;;;17.83;10.30;;;;;;;;;;13032547;22;20525;-78
2021/03/01 03:22:53;;;;;;;17.87;10.37;;;;;;;;;;13032448;22;20180;-77
2021/03/01 03:27:55;;;;;;;19.40;10.73;;;;;;;;;;13011531;22;20525;-77
2021/03/01 03:32:57;;;;;;;17.73;10.70;;;;;;;;;;13034690;22;20292;-77
2021/03/01 03:38:03;;;;;;;17.93;10.53;;;;;;;;;;13015080;22;20180;-78
2021/03/01 03:43:06;;;;;;;20.13;11.00;;;;;;;;;;13040835;22;20172;-76
2021/03/01 03:48:08;;;;;;;15.70;9.57;;;;;;;;;;13030483;22;20177;-76
2021/03/01 03:53:12;;;;;;;18.63;10.57;;;;;;;;;;13032613;22;20285;-76
2021/03/01 03:58:15;;;;;;;20.03;11.53;;;;;;;;;;13034219;22;20170;-76
2021/03/01 04:03:17;;;;;;;17.83;10.43;;;;;;;;;;13010862;22;20671;-76
2021/03/01 04:08:21;;;;;;;22.20;12.20;;;;;;;;;;13037816;22;20192;-76
2021/03/01 04:13:25;;;;;;;21.40;12.27;;;;;;;;;;13013578;22;20200;-77
2021/03/01 04:18:29;;;;;;;20.57;11.93;;;;;;;;;;13015782;22;20174;-76
2021/03/01 04:23:33;;;;;;;23.60;13.97;;;;;;;;;;13038054;22;20657;-77
2021/03/01 04:28:35;;;;;;;26.53;14.27;;;;;;;;;;13036686;22;20181;-76
2021/03/01 04:33:39;;;;;;;26.83;15.57;;;;;;;;;;13015325;22;20241;-77
2021/03/01 04:38:42;;;;;;;28.20;15.23;;;;;;;;;;13016968;22;20178;-76
2021/03/01 04:43:44;;;;;;;29.10;15.73;;;;;;;;;;13012817;22;20424;-76
2021/03/01 04:48:47;;;;;;;27.33;15.53;;;;;;;;;;13016418;22;20178;-77
2021/03/01 04:53:50;;;;;;;28.37;16.47;;;;;;;;;;13010472;22;20202;-76
2021/03/01 04:58:52;;;;;;;27.13;15.37;;;;;;;;;;13038079;22;20186;-76
2021/03/01 05:03:54;;;;;;;27.77;15.47;;;;;;;;;;13012602;22;20174;-77
2021/03/01 05:09:00;;;;;;;28.60;16.03;;;;;;;;;;13034410;22;20188;-76
2021/03/01 05:14:02;;;;;;;33.03;16.87;;;;;;;;;;13011706;22;20198;-76
2021/03/01 05:19:04;;;;;;;29.33;15.87;;;;;;;;;;13036955;22;21077;-76
2021/03/01 05:24:08;;;;;;;29.27;17.03;;;;;;;;;;13036338;22;20598;-77
2021/03/01 05:29:10;;;;;;;29.10;15.83;;;;;;;;;;13035374;22;20182;-77
2021/03/01 05:34:11;;;;;;;28.97;16.30;;;;;;;;;;13017742;22;20208;-77
2021/03/01 05:39:14;;;;;;;28.80;16.37;;;;;;;;;;13032498;22;20177;-77
2021/03/01 05:44:17;;;;;;;28.67;15.77;;;;;;;;;;13033221;22;20180;-76
2021/03/01 05:49:20;;;;;;;31.53;17.17;;;;;;;;;;13035523;22;20181;-76
2021/03/01 05:54:25;;;;;;;30.40;17.20;;;;;;;;;;13034067;22;20336;-77
2021/03/01 05:59:27;;;;;;;30.10;16.23;;;;;;;;;;13033256;22;20173;-77
2021/03/01 06:04:29;;;;;;;29.50;15.93;;;;;;;;;;13033984;22;20178;-76
2021/03/01 06:09:32;;;;;;;27.07;15.87;;;;;;;;;;13011305;22;20188;-77
2021/03/01 06:14:34;;;;;;;28.60;15.53;;;;;;;;;;13035580;22;20459;-76
2021/03/01 06:19:46;;;;;;;26.60;15.63;;;;;;;;;;13033643;22;20173;-76
2021/03/01 06:25:08;;;;;;;27.87;16.30;;;;;;;;;;13032703;22;20679;-78
2021/03/01 06:30:11;;;;;;;27.73;15.77;;;;;;;;;;13011440;22;20200;-78
2021/03/01 06:35:27;;;;;;;29.13;15.93;;;;;;;;;;13032805;22;20217;-78
2021/03/01 06:40:30;;;;;;;25.30;15.40;;;;;;;;;;13007730;22;20173;-78
2021/03/01 06:45:32;;;;;;;25.47;14.57;;;;;;;;;;13035602;22;20174;-78
2021/03/01 06:50:35;;;;;;;26.97;15.77;;;;;;;;;;13035662;22;20181;-80
2021/03/01 06:55:39;;;;;;;25.23;14.87;;;;;;;;;;13011386;22;20205;-79
2021/03/01 07:00:41;;;;;;;25.13;15.10;;;;;;;;;;13032025;22;20519;-79
2021/03/01 07:05:48;;;;;;;30.57;16.17;;;;;;;;;;13012130;22;20665;-79
2021/03/01 07:10:51;;;;;;;30.13;16.07;;;;;;;;;;13034200;22;20185;-78
2021/03/01 07:15:52;;;;;;;25.57;14.13;;;;;;;;;;13038711;22;20939;-79
2021/03/01 07:20:55;;;;;;;24.70;13.37;;;;;;;;;;13036913;22;20185;-79
2021/03/01 07:25:58;;;;;;;25.03;13.97;;;;;;;;;;13036461;22;20178;-79
2021/03/01 07:31:01;;;;;;;24.87;13.57;;;;;;;;;;13014061;22;20762;-78
2021/03/01 07:36:03;;;;;;;22.27;13.03;;;;;;;;;;13016094;22;20229;-78
2021/03/01 07:41:06;;;;;;;21.67;13.03;;;;;;;;;;13040779;22;20212;-77
2021/03/01 07:46:10;;;;;;;25.40;12.97;;;;;;;;;;13016637;22;20201;-78
2021/03/01 07:51:14;;;;;;;23.47;12.33;;;;;;;;;;13037350;22;20178;-78
2021/03/01 07:56:31;;;;;;;24.57;13.47;;;;;;;;;;13034389;22;20655;-78
2021/03/01 08:01:34;;;;;;;22.27;12.63;;;;;;;;;;12992637;22;20173;-78
2021/03/01 08:06:55;;;;;;;23.10;13.10;;;;;;;;;;13017332;22;20178;-80
2021/03/01 08:11:57;;;;;;;21.07;12.73;;;;;;;;;;13041289;22;20255;-80
2021/03/01 08:17:14;;;;;;;22.37;12.63;;;;;;;;;;13015795;22;20367;-80
2021/03/01 08:22:17;;;;;;;21.63;12.97;;;;;;;;;;13027008;22;20798;-83
2021/03/01 08:27:37;;;;;;;22.97;12.60;;;;;;;;;;13031630;22;20503;-86
2021/03/01 08:32:39;;;;;;;20.27;12.37;;;;;;;;;;13036155;22;20209;-86
2021/03/01 08:37:46;;;;;;;21.23;11.80;;;;;;;;;;13009518;22;20173;-76
2021/03/01 08:42:55;;;;;;;18.90;10.90;;;;;;;;;;13026686;22;20174;-79
2021/03/01 08:48:02;;;;;;;19.97;11.47;;;;;;;;;;13036471;22;20273;-79
2021/03/01 08:53:05;;;;;;;20.37;11.47;;;;;;;;;;13032724;22;20208;-79
2021/03/01 08:58:09;;;;;;;16.93;10.23;;;;;;;;;;13036187;22;20177;-79
2021/03/01 09:03:15;;;;;;;18.40;11.63;;;;;;;;;;13013887;22;20173;-75
2021/03/01 09:08:24;;;;;;;19.23;11.50;;;;;;;;;;13035988;22;20182;-77
2021/03/01 09:13:26;;;;;;;20.00;11.47;;;;;;;;;;13035318;22;20213;-82
2021/03/01 09:18:29;;;;;;;18.00;11.00;;;;;;;;;;13019302;22;20177;-82
2021/03/01 09:23:33;;;;;;;21.13;11.67;;;;;;;;;;13036874;22;20178;-84
2021/03/01 09:28:36;;;;;;;17.73;10.97;;;;;;;;;;13037044;22;20639;-83
2021/03/01 09:33:39;;;;;;;18.00;10.93;;;;;;;;;;13017100;22;20209;-83
2021/03/01 09:38:43;;;;;;;20.70;11.80;;;;;;;;;;13035932;22;20193;-80
2021/03/01 09:43:47;;;;;;;19.60;11.57;;;;;;;;;;13036943;22;20176;-79
2021/03/01 09:48:51;;;;;;;20.47;11.20;;;;;;;;;;13036665;22;20178;-78
2021/03/01 09:53:54;;;;;;;19.37;11.20;;;;;;;;;;13014817;22;20400;-79
2021/03/01 09:58:56;;;;;;;20.20;11.43;;;;;;;;;;13038433;22;20174;-87
2021/03/01 10:03:58;;;;;;;20.70;11.67;;;;;;;;;;13023848;22;20721;-82
2021/03/01 10:09:06;;;;;;;21.63;12.27;;;;;;;;;;13043596;22;20673;-89
2021/03/01 10:14:10;;;;;;;22.00;12.07;;;;;;;;;;13025909;22;20209;-91
2021/03/01 10:19:13;;;;;;;20.53;11.30;;;;;;;;;;13045649;22;20698;-90
2021/03/01 10:24:16;;;;;;;25.90;14.13;;;;;;;;;;13033012;22;20204;-90
2021/03/01 10:29:29;;;;;;;22.77;13.10;;;;;;;;;;13046421;22;20182;-93
2021/03/01 10:34:35;;;;;;;24.37;13.37;;;;;;;;;;13046770;22;20591;-88
2021/03/01 10:39:39;;;;;;;22.03;12.47;;;;;;;;;;13044306;22;20176;-88
2021/03/01 10:44:47;;;;;;;22.33;12.40;;;;;;;;;;13038681;22;20185;-87
2021/03/01 10:49:51;;;;;;;22.97;13.00;;;;;;;;;;13040390;22;20177;-88
2021/03/01 10:54:55;;;;;;;23.37;13.40;;;;;;;;;;13016778;22;20209;-87
2021/03/01 10:59:59;;;;;;;23.43;13.17;;;;;;;;;;13030866;22;20560;-92
2021/03/01 11:05:01;;;;;;;21.20;12.30;;;;;;;;;;13051850;22;20619;-88
2021/03/01 11:10:06;;;;;;;19.20;11.83;;;;;;;;;;13042921;22;20579;-86
2021/03/01 11:15:08;;;;;;;21.07;11.13;;;;;;;;;;13037827;22;20301;-85
2021/03/01 11:20:10;;;;;;;19.33;10.70;;;;;;;;;;13017244;22;20377;-85
2021/03/01 11:25:13;;;;;;;17.37;10.10;;;;;;;;;;13035950;22;20696;-86
2021/03/01 11:30:15;;;;;;;17.87;9.80;;;;;;;;;;13040255;22;20670;-85
2021/03/01 11:35:17;;;;;;;19.70;9.83;;;;;;;;;;13043018;22;20224;-85
2021/03/01 11:40:20;;;;;;;20.53;9.87;;;;;;;;;;13045066;22;20249;-87
2021/03/01 11:45:22;;;;;;;17.90;9.83;;;;;;;;;;13042306;22;20559;-86
2021/03/01 11:50:26;;;;;;;18.70;10.17;;;;;;;;;;13040846;22;20204;-88
2021/03/01 11:55:29;;;;;;;20.40;10.87;;;;;;;;;;13045394;22;20233;-84
2021/03/01 12:00:32;;;;;;;22.73;11.20;;;;;;;;;;13037943;22;20178;-85
2021/03/01 12:05:54;;;;;;;18.97;10.47;;;;;;;;;;13018622;22;20173;-89
2021/03/01 12:11:01;;;;;;;19.70;10.40;;;;;;;;;;13024447;22;20518;-85
2021/03/01 12:16:03;;;;;;;20.43;10.63;;;;;;;;;;13044909;22;20194;-80
2021/03/01 12:21:14;;;;;;;29.73;10.73;;;;;;;;;;13041707;22;20628;-80
2021/03/01 12:26:18;;;;;;;19.93;9.93;;;;;;;;;;13048860;22;20190;-92
2021/03/01 12:31:26;;;;;;;20.10;10.40;;;;;;;;;;13019546;22;20233;-90
2021/03/01 12:36:32;;;;;;;21.83;10.13;;;;;;;;;;13047003;22;20890;-77
2021/03/01 12:41:35;;;;;;;24.73;11.23;;;;;;;;;;13043275;22;20166;-88
2021/03/01 12:46:41;;;;;;;22.47;11.00;;;;;;;;;;13042669;22;20172;-86
2021/03/01 12:51:45;;;;;;;22.37;10.53;;;;;;;;;;13041111;22;20174;-88
2021/03/01 12:56:48;;;;;;;24.87;11.33;;;;;;;;;;13044426;22;20229;-86
2021/03/01 13:01:50;;;;;;;22.03;10.63;;;;;;;;;;13038943;22;20201;-84
2021/03/01 13:06:53;;;;;;;21.40;10.20;;;;;;;;;;13037318;22;20173;-84
2021/03/01 13:11:56;;;;;;;22.77;10.77;;;;;;;;;;13038704;22;20196;-84
2021/03/01 13:16:58;;;;;;;25.10;10.77;;;;;;;;;;13036997;22;20699;-86
2021/03/01 13:22:00;;;;;;;19.77;9.53;;;;;;;;;;13037121;22;20251;-85
2021/03/01 13:27:03;;;;;;;21.50;10.10;;;;;;;;;;13040085;22;20204;-84
2021/03/01 13:32:06;;;;;;;18.57;9.97;;;;;;;;;;13037138;22;20621;-84
2021/03/01 13:37:09;;;;;;;17.80;9.27;;;;;;;;;;13037215;22;20702;-85
2021/03/01 13:42:11;;;;;;;22.47;9.90;;;;;;;;;;13040857;22;20611;-83
2021/03/01 13:47:14;;;;;;;18.87;9.47;;;;;;;;;;13038544;22;20212;-84
2021/03/01 13:52:16;;;;;;;19.20;8.60;;;;;;;;;;13039621;22;20177;-83
2021/03/01 13:57:20;;;;;;;18.13;8.40;;;;;;;;;;13021537;22;20285;-87
2021/03/01 14:02:22;;;;;;;21.53;10.53;;;;;;;;;;13043727;22;20276;-85
2021/03/01 14:07:29;;;;;;;19.17;10.13;;;;;;;;;;13039984;22;20750;-86
2021/03/01 14:12:32;;;;;;;18.33;9.93;;;;;;;;;;13042032;22;20165;-86
2021/03/01 14:17:34;;;;;;;19.73;9.90;;;;;;;;;;13042452;22;20193;-86
2021/03/01 14:22:36;;;;;;;16.93;9.23;;;;;;;;;;13042567;22;20176;-86
2021/03/01 14:27:40;;;;;;;18.03;9.10;;;;;;;;;;13042740;22;20630;-86
2021/03/01 14:32:42;;;;;;;18.10;9.80;;;;;;;;;;13041100;22;20197;-86
2021/03/01 14:37:53;;;;;;;16.07;8.50;;;;;;;;;;13040187;22;20193;-85
2021/03/01 14:42:56;;;;;;;18.40;9.97;;;;;;;;;;13018617;22;20244;-87
2021/03/01 14:47:58;;;;;;;17.93;9.23;;;;;;;;;;13017012;22;20257;-87
2021/03/01 14:53:00;;;;;;;17.53;9.00;;;;;;;;;;13037913;22;20644;-87
2021/03/01 14:58:02;;;;;;;21.83;9.63;;;;;;;;;;13040650;22;20186;-87
2021/03/01 15:03:04;;;;;;;20.17;9.20;;;;;;;;;;13040343;22;20170;-88
2021/03/01 15:08:16;;;;;;;22.67;9.93;;;;;;;;;;13034927;22;20243;-87
2021/03/01 15:13:19;;;;;;;20.93;9.43;;;;;;;;;;13009991;22;20212;-88
2021/03/01 15:18:21;;;;;;;20.07;10.17;;;;;;;;;;13011083;22;20173;-86
2021/03/01 15:23:24;;;;;;;20.67;9.70;;;;;;;;;;13029564;22;20180;-86
2021/03/01 15:28:27;;;;;;;20.50;9.87;;;;;;;;;;13029668;22;20174;-87
2021/03/01 15:33:29;;;;;;;21.30;9.77;;;;;;;;;;13029130;22;20205;-86
2021/03/01 15:38:43;;;;;;;18.77;9.87;;;;;;;;;;13031243;22;20181;-88
2021/03/01 15:43:46;;;;;;;21.33;10.03;;;;;;;;;;13029139;22;20181;-87
2021/03/01 15:48:54;;;;;;;21.57;9.67;;;;;;;;;;13031411;22;20166;-87
2021/03/01 15:53:56;;;;;;;18.10;8.93;;;;;;;;;;13029337;22;20634;-87
2021/03/01 15:58:59;;;;;;;16.97;9.00;;;;;;;;;;13008719;22;20277;-86
2021/03/01 16:04:01;;;;;;;19.60;9.40;;;;;;;;;;13034220;22;20174;-88
2021/03/01 16:09:07;;;;;;;17.43;9.10;;;;;;;;;;13041371;22;21007;-86
2021/03/01 16:14:10;;;;;;;19.37;9.43;;;;;;;;;;13016165;22;20216;-87
2021/03/01 16:19:12;;;;;;;21.40;9.40;;;;;;;;;;13034854;22;20173;-87
2021/03/01 16:24:14;;;;;;;17.00;9.30;;;;;;;;;;13016829;22;20169;-87
2021/03/01 16:29:17;;;;;;;19.07;9.73;;;;;;;;;;13016608;22;20208;-88
2021/03/01 16:34:19;;;;;;;20.40;10.10;;;;;;;;;;13034218;22;20605;-87
2021/03/01 16:39:28;;;;;;;20.20;9.70;;;;;;;;;;13016213;22;20231;-87
2021/03/01 16:44:31;;;;;;;21.30;9.57;;;;;;;;;;13014437;22;20184;-86
2021/03/01 16:49:33;;;;;;;19.63;9.60;;;;;;;;;;13034330;22;20245;-86
2021/03/01 16:54:35;;;;;;;18.90;9.73;;;;;;;;;;13031317;22;20216;-88
2021/03/01 16:59:38;;;;;;;22.37;10.43;;;;;;;;;;13035786;22;20174;-87
2021/03/01 17:04:41;;;;;;;21.37;9.57;;;;;;;;;;13033718;22;20180;-86
2021/03/01 17:09:51;;;;;;;19.57;9.87;;;;;;;;;;13032216;22;20720;-87
2021/03/01 17:14:56;;;;;;;21.53;10.20;;;;;;;;;;13031923;22;20263;-87
2021/03/01 17:20:00;;;;;;;20.47;10.33;;;;;;;;;;13031930;22;20643;-87
2021/03/01 17:25:04;;;;;;;23.30;11.13;;;;;;;;;;13031595;22;20178;-87
2021/03/01 17:30:09;;;;;;;21.80;9.83;;;;;;;;;;13010969;22;20197;-87
2021/03/01 17:35:12;;;;;;;22.40;10.60;;;;;;;;;;13032575;22;20213;-87
2021/03/01 17:40:17;;;;;;;22.40;10.37;;;;;;;;;;13032301;22;20559;-86
2021/03/01 17:45:20;;;;;;;22.53;10.37;;;;;;;;;;13010106;22;20561;-86
2021/03/01 17:50:22;;;;;;;21.70;10.10;;;;;;;;;;13008658;22;20365;-85
2021/03/01 17:55:28;;;;;;;17.47;9.53;;;;;;;;;;13010389;22;20270;-86
2021/03/01 18:00:32;;;;;;;22.60;10.90;;;;;;;;;;13028425;22;20181;-86
2021/03/01 18:05:34;;;;;;;19.87;9.90;;;;;;;;;;13031404;22;20884;-84
2021/03/01 18:10:37;;;;;;;23.07;10.37;;;;;;;;;;13031724;22;20185;-83
2021/03/01 18:15:41;;;;;;;18.80;9.27;;;;;;;;;;13032813;22;20205;-84
2021/03/01 18:20:45;;;;;;;24.60;9.57;;;;;;;;;;13028872;22;20174;-83
2021/03/01 18:25:49;;;;;;;19.80;9.50;;;;;;;;;;13028933;22;20646;-82
2021/03/01 18:30:53;;;;;;;19.07;9.07;;;;;;;;;;13009576;22;20671;-82
2021/03/01 18:35:58;;;;;;;21.37;8.87;;;;;;;;;;13007441;22;20209;-86
2021/03/01 18:41:02;;;;;;;19.13;9.10;;;;;;;;;;13029638;22;20204;-84
2021/03/01 18:46:06;;;;;;;19.83;8.83;;;;;;;;;;13028351;22;20651;-83
2021/03/01 18:51:08;;;;;;;21.43;9.70;;;;;;;;;;13007468;22;20174;-85
2021/03/01 18:56:10;;;;;;;18.20;9.10;;;;;;;;;;13026071;22;20209;-84
2021/03/01 19:01:13;;;;;;;19.80;8.40;;;;;;;;;;13028110;22;20177;-84
2021/03/01 19:06:15;;;;;;;20.23;8.73;;;;;;;;;;13027777;22;20173;-83
2021/03/01 19:11:22;;;;;;;20.30;9.10;;;;;;;;;;13027767;22;20259;-84
2021/03/01 19:16:24;;;;;;;19.37;8.80;;;;;;;;;;13028045;22;20212;-84
2021/03/01 19:21:26;;;;;;;18.90;8.60;;;;;;;;;;13005978;22;20787;-84
2021/03/01 19:26:28;;;;;;;21.50;8.80;;;;;;;;;;13030483;22;20661;-84
2021/03/01 19:31:31;;;;;;;18.80;8.90;;;;;;;;;;13026060;22;20555;-83
2021/03/01 19:36:33;;;;;;;19.97;9.20;;;;;;;;;;13030520;22;20197;-84
2021/03/01 19:41:43;;;;;;;20.10;9.00;;;;;;;;;;13033148;22;20181;-84
2021/03/01 19:46:46;;;;;;;20.60;9.70;;;;;;;;;;13031367;22;20209;-83
2021/03/01 19:51:51;;;;;;;22.17;9.73;;;;;;;;;;13031680;22;20174;-84
2021/03/01 19:56:54;;;;;;;23.70;10.03;;;;;;;;;;13010267;22;20709;-84
2021/03/01 20:01:56;;;;;;;22.33;9.50;;;;;;;;;;13008584;22;20201;-84
2021/03/01 20:06:58;;;;;;;18.47;9.67;;;;;;;;;;13031213;22;20216;-84
2021/03/01 20:12:07;;;;;;;19.90;9.80;;;;;;;;;;13033613;22;20572;-83
2021/03/01 20:17:10;;;;;;;21.83;9.90;;;;;;;;;;13031734;22;20205;-83
2021/03/01 20:22:13;;;;;;;24.70;11.33;;;;;;;;;;13028708;22;20517;-84
2021/03/01 20:27:15;;;;;;;20.27;10.83;;;;;;;;;;13032572;22;20549;-84
2021/03/01 20:32:18;;;;;;;24.83;12.13;;;;;;;;;;13006475;22;20220;-84
2021/03/01 20:37:20;;;;;;;24.77;12.10;;;;;;;;;;13010315;22;20227;-83
2021/03/01 20:42:27;;;;;;;24.83;11.80;;;;;;;;;;13030471;22;20174;-84
2021/03/01 20:47:30;;;;;;;21.97;11.37;;;;;;;;;;13031892;22;20173;-84
2021/03/01 20:52:32;;;;;;;24.40;12.07;;;;;;;;;;13034533;22;20265;-84
2021/03/01 20:57:34;;;;;;;27.00;13.13;;;;;;;;;;13034888;22;20205;-83
2021/03/01 21:02:37;;;;;;;22.67;10.83;;;;;;;;;;13033864;22;20177;-83
2021/03/01 21:07:39;;;;;;;24.93;12.27;;;;;;;;;;13030463;22;20189;-81
2021/03/01 21:12:51;;;;;;;24.17;10.90;;;;;;;;;;13041603;22;20181;-81
2021/03/01 21:17:55;;;;;;;24.23;12.37;;;;;;;;;;13037345;22;20206;-83
2021/03/01 21:22:58;;;;;;;24.90;12.77;;;;;;;;;;13039594;22;20177;-83
2021/03/01 21:28:01;;;;;;;25.83;12.10;;;;;;;;;;13034838;22;20172;-83
2021/03/01 21:33:05;;;;;;;23.73;12.33;;;;;;;;;;13034972;22;20190;-83
2021/03/01 21:38:08;;;;;;;25.80;12.53;;;;;;;;;;13035037;22;20496;-82
2021/03/01 21:43:10;;;;;;;24.93;12.70;;;;;;;;;;13036059;22;20254;-82
2021/03/01 21:48:13;;;;;;;26.27;12.30;;;;;;;;;;13014833;22;20177;-83
2021/03/01 21:53:17;;;;;;;23.50;12.37;;;;;;;;;;13034192;22;20260;-83
2021/03/01 21:58:21;;;;;;;23.23;12.40;;;;;;;;;;13016437;22;20213;-83
2021/03/01 22:03:25;;;;;;;26.90;14.17;;;;;;;;;;13035958;22;20190;-83
2021/03/01 22:08:27;;;;;;;24.13;12.73;;;;;;;;;;13038529;22;20185;-83
2021/03/01 22:13:40;;;;;;;25.60;13.37;;;;;;;;;;13037074;22;20174;-82
2021/03/01 22:18:43;;;;;;;26.57;13.87;;;;;;;;;;13034740;22;20358;-82
2021/03/01 22:23:45;;;;;;;25.67;13.23;;;;;;;;;;13032933;22;20162;-82
2021/03/01 22:28:49;;;;;;;25.47;13.73;;;;;;;;;;13032622;22;20236;-82
2021/03/01 22:33:53;;;;;;;26.97;13.50;;;;;;;;;;13030298;22;20698;-82
2021/03/01 22:38:59;;;;;;;26.70;12.93;;;;;;;;;;13015209;22;20266;-81
2021/03/01 22:44:04;;;;;;;27.93;14.47;;;;;;;;;;13032900;22;20170;-82
2021/03/01 22:49:07;;;;;;;29.03;14.47;;;;;;;;;;13011640;22;20555;-83
2021/03/01 22:54:10;;;;;;;26.43;14.07;;;;;;;;;;13033593;22;20194;-82
2021/03/01 22:59:12;;;;;;;30.47;15.00;;;;;;;;;;13010727;22;20243;-82
2021/03/01 23:04:16;;;;;;;27.33;14.10;;;;;;;;;;13036904;22;20201;-83
2021/03/01 23:09:18;;;;;;;27.50;14.93;;;;;;;;;;13030874;22;20195;-83
2021/03/01 23:14:21;;;;;;;31.67;15.10;;;;;;;;;;13034550;22;20240;-83
2021/03/01 23:19:25;;;;;;;29.27;15.67;;;;;;;;;;13032517;22;20201;-82
2021/03/01 23:24:32;;;;;;;30.50;15.27;;;;;;;;;;13034081;22;20193;-82
2021/03/01 23:29:34;;;;;;;29.20;15.27;;;;;;;;;;13011670;22;20198;-81
2021/03/01 23:34:36;;;;;;;28.30;15.37;;;;;;;;;;13033629;22;20211;-81
2021/03/01 23:39:40;;;;;;;26.87;14.80;;;;;;;;;;13031835;22;20178;-82
2021/03/01 23:44:44;;;;;;;28.17;14.73;;;;;;;;;;13036116;22;20211;-81
2021/03/01 23:49:49;;;;;;;30.17;15.87;;;;;;;;;;13011599;22;20648;-82
2021/03/01 23:54:51;;;;;;;30.67;16.10;;;;;;;;;;13033571;22;20322;-82
2021/03/01 23:59:54;;;;;;;30.57;15.67;;;;;;;;;;13036405;22;20516;-81
